sensor_id;sensor_type;location;lat;lon;timestamp;P1;durP1;ratioP1;P2;durP2;ratioP2
1414;SDS011;702;49.466;11.086;2024-03-08T00:01:03;29.70;;;19.23;;
1414;SDS011;702;49.466;11.086;2024-03-08T00:03:32;34.80;;;19.50;;
1414;SDS011;702;49.466;11.086;2024-03-08T00:05:59;29.73;;;18.47;;
1414;SDS011;702;49.466;11.086;2024-03-08T00:08:28;33.70;;;19.33;;
1414;SDS011;702;49.466;11.086;2024-03-08T00:10:58;29.57;;;19.10;;
1414;SDS011;702;49.466;11.086;2024-03-08T00:13:26;29.30;;;18.60;;
1414;SDS011;702;49.466;11.086;2024-03-08T00:15:56;31.60;;;20.37;;
1414;SDS011;702;49.466;11.086;2024-03-08T00:18:23;30.03;;;19.00;;
1414;SDS011;702;49.466;11.086;2024-03-08T00:20:51;29.20;;;19.97;;
1414;SDS011;702;49.466;11.086;2024-03-08T00:23:20;34.83;;;21.73;;
1414;SDS011;702;49.466;11.086;2024-03-08T00:25:48;28.03;;;19.47;;
1414;SDS011;702;49.466;11.086;2024-03-08T00:28:17;30.77;;;19.50;;
1414;SDS011;702;49.466;11.086;2024-03-08T00:30:46;33.13;;;20.20;;
1414;SDS011;702;49.466;11.086;2024-03-08T00:33:14;27.30;;;18.00;;
1414;SDS011;702;49.466;11.086;2024-03-08T00:35:42;31.73;;;19.80;;
1414;SDS011;702;49.466;11.086;2024-03-08T00:38:09;30.03;;;19.63;;
1414;SDS011;702;49.466;11.086;2024-03-08T00:40:37;29.37;;;18.70;;
1414;SDS011;702;49.466;11.086;2024-03-08T00:43:05;28.50;;;19.90;;
1414;SDS011;702;49.466;11.086;2024-03-08T00:45:34;33.07;;;20.90;;
1414;SDS011;702;49.466;11.086;2024-03-08T00:48:02;36.17;;;21.23;;
1414;SDS011;702;49.466;11.086;2024-03-08T00:50:31;27.30;;;19.97;;
1414;SDS011;702;49.466;11.086;2024-03-08T00:52:59;33.37;;;22.63;;
1414;SDS011;702;49.466;11.086;2024-03-08T00:55:26;32.13;;;18.70;;
1414;SDS011;702;49.466;11.086;2024-03-08T00:57:55;34.70;;;19.63;;
1414;SDS011;702;49.466;11.086;2024-03-08T01:00:23;33.00;;;21.77;;
1414;SDS011;702;49.466;11.086;2024-03-08T01:02:55;37.23;;;21.50;;
1414;SDS011;702;49.466;11.086;2024-03-08T01:05:23;30.30;;;20.73;;
1414;SDS011;702;49.466;11.086;2024-03-08T01:07:52;32.47;;;19.27;;
1414;SDS011;702;49.466;11.086;2024-03-08T01:10:20;32.90;;;20.53;;
1414;SDS011;702;49.466;11.086;2024-03-08T01:12:50;31.27;;;20.10;;
1414;SDS011;702;49.466;11.086;2024-03-08T01:15:20;31.93;;;19.87;;
1414;SDS011;702;49.466;11.086;2024-03-08T01:17:47;37.80;;;19.23;;
1414;SDS011;702;49.466;11.086;2024-03-08T01:20:16;32.63;;;19.23;;
1414;SDS011;702;49.466;11.086;2024-03-08T01:22:44;32.30;;;19.33;;
1414;SDS011;702;49.466;11.086;2024-03-08T01:25:12;31.73;;;20.93;;
1414;SDS011;702;49.466;11.086;2024-03-08T01:27:40;30.77;;;21.07;;
1414;SDS011;702;49.466;11.086;2024-03-08T01:30:07;31.83;;;20.40;;
1414;SDS011;702;49.466;11.086;2024-03-08T01:32:35;36.60;;;19.80;;
1414;SDS011;702;49.466;11.086;2024-03-08T01:35:04;39.00;;;21.70;;
1414;SDS011;702;49.466;11.086;2024-03-08T01:37:36;30.67;;;18.13;;
1414;SDS011;702;49.466;11.086;2024-03-08T01:40:04;32.13;;;20.07;;
1414;SDS011;702;49.466;11.086;2024-03-08T01:42:35;32.83;;;19.80;;
1414;SDS011;702;49.466;11.086;2024-03-08T01:45:05;31.17;;;19.73;;
1414;SDS011;702;49.466;11.086;2024-03-08T01:47:33;32.10;;;20.13;;
1414;SDS011;702;49.466;11.086;2024-03-08T01:50:03;37.73;;;21.57;;
1414;SDS011;702;49.466;11.086;2024-03-08T01:52:32;33.63;;;19.10;;
1414;SDS011;702;49.466;11.086;2024-03-08T01:55:05;32.67;;;19.13;;
1414;SDS011;702;49.466;11.086;2024-03-08T01:57:33;32.33;;;20.40;;
1414;SDS011;702;49.466;11.086;2024-03-08T02:00:04;29.00;;;18.43;;
1414;SDS011;702;49.466;11.086;2024-03-08T02:02:35;31.73;;;21.20;;
1414;SDS011;702;49.466;11.086;2024-03-08T02:05:06;33.93;;;20.90;;
1414;SDS011;702;49.466;11.086;2024-03-08T02:07:39;34.43;;;20.90;;
1414;SDS011;702;49.466;11.086;2024-03-08T02:10:10;33.90;;;20.87;;
1414;SDS011;702;49.466;11.086;2024-03-08T02:12:41;32.00;;;21.10;;
1414;SDS011;702;49.466;11.086;2024-03-08T02:15:09;36.57;;;20.03;;
1414;SDS011;702;49.466;11.086;2024-03-08T02:17:40;38.43;;;22.20;;
1414;SDS011;702;49.466;11.086;2024-03-08T02:20:08;32.70;;;20.50;;
1414;SDS011;702;49.466;11.086;2024-03-08T02:22:41;32.90;;;20.00;;
1414;SDS011;702;49.466;11.086;2024-03-08T02:25:11;33.63;;;19.80;;
1414;SDS011;702;49.466;11.086;2024-03-08T02:27:39;30.83;;;19.70;;
1414;SDS011;702;49.466;11.086;2024-03-08T02:30:06;35.07;;;20.73;;
1414;SDS011;702;49.466;11.086;2024-03-08T02:32:37;29.90;;;18.83;;
1414;SDS011;702;49.466;11.086;2024-03-08T02:35:05;36.00;;;20.30;;
1414;SDS011;702;49.466;11.086;2024-03-08T02:37:33;35.90;;;21.13;;
1414;SDS011;702;49.466;11.086;2024-03-08T02:40:03;31.43;;;20.60;;
1414;SDS011;702;49.466;11.086;2024-03-08T02:42:32;32.43;;;21.43;;
1414;SDS011;702;49.466;11.086;2024-03-08T02:44:59;30.47;;;19.00;;
1414;SDS011;702;49.466;11.086;2024-03-08T02:47:30;30.50;;;20.13;;
1414;SDS011;702;49.466;11.086;2024-03-08T02:49:58;33.07;;;20.67;;
1414;SDS011;702;49.466;11.086;2024-03-08T02:52:26;36.50;;;21.23;;
1414;SDS011;702;49.466;11.086;2024-03-08T02:54:54;36.73;;;21.43;;
1414;SDS011;702;49.466;11.086;2024-03-08T02:57:22;39.80;;;23.33;;
1414;SDS011;702;49.466;11.086;2024-03-08T02:59:49;34.90;;;20.87;;
1414;SDS011;702;49.466;11.086;2024-03-08T03:02:17;28.60;;;19.87;;
1414;SDS011;702;49.466;11.086;2024-03-08T03:04:44;32.33;;;19.07;;
1414;SDS011;702;49.466;11.086;2024-03-08T03:07:11;31.80;;;20.43;;
1414;SDS011;702;49.466;11.086;2024-03-08T03:09:39;32.10;;;21.37;;
1414;SDS011;702;49.466;11.086;2024-03-08T03:12:06;28.80;;;17.77;;
1414;SDS011;702;49.466;11.086;2024-03-08T03:14:36;34.20;;;20.90;;
1414;SDS011;702;49.466;11.086;2024-03-08T03:17:04;34.07;;;21.07;;
1414;SDS011;702;49.466;11.086;2024-03-08T03:19:32;34.00;;;21.40;;
1414;SDS011;702;49.466;11.086;2024-03-08T03:22:01;37.20;;;21.90;;
1414;SDS011;702;49.466;11.086;2024-03-08T03:24:32;35.70;;;22.30;;
1414;SDS011;702;49.466;11.086;2024-03-08T03:27:01;36.07;;;21.90;;
1414;SDS011;702;49.466;11.086;2024-03-08T03:29:37;33.30;;;22.27;;
1414;SDS011;702;49.466;11.086;2024-03-08T03:32:05;34.93;;;20.77;;
1414;SDS011;702;49.466;11.086;2024-03-08T03:34:33;32.37;;;20.83;;
1414;SDS011;702;49.466;11.086;2024-03-08T03:37:02;33.97;;;21.03;;
1414;SDS011;702;49.466;11.086;2024-03-08T03:39:29;31.57;;;20.20;;
1414;SDS011;702;49.466;11.086;2024-03-08T03:41:59;36.13;;;21.70;;
1414;SDS011;702;49.466;11.086;2024-03-08T03:44:27;35.60;;;20.43;;
1414;SDS011;702;49.466;11.086;2024-03-08T03:46:58;38.47;;;22.10;;
1414;SDS011;702;49.466;11.086;2024-03-08T03:49:26;30.70;;;19.77;;
1414;SDS011;702;49.466;11.086;2024-03-08T03:51:55;36.93;;;22.03;;
1414;SDS011;702;49.466;11.086;2024-03-08T03:54:22;29.27;;;20.23;;
1414;SDS011;702;49.466;11.086;2024-03-08T03:56:50;35.63;;;21.00;;
1414;SDS011;702;49.466;11.086;2024-03-08T03:59:20;36.10;;;21.70;;
1414;SDS011;702;49.466;11.086;2024-03-08T04:01:52;37.10;;;22.30;;
1414;SDS011;702;49.466;11.086;2024-03-08T04:04:24;38.67;;;22.20;;
1414;SDS011;702;49.466;11.086;2024-03-08T04:06:51;33.97;;;21.63;;
1414;SDS011;702;49.466;11.086;2024-03-08T04:09:20;32.63;;;20.63;;
1414;SDS011;702;49.466;11.086;2024-03-08T04:11:51;36.10;;;22.30;;
1414;SDS011;702;49.466;11.086;2024-03-08T04:14:22;36.77;;;21.70;;
1414;SDS011;702;49.466;11.086;2024-03-08T04:16:51;35.40;;;20.77;;
1414;SDS011;702;49.466;11.086;2024-03-08T04:19:20;33.47;;;21.00;;
1414;SDS011;702;49.466;11.086;2024-03-08T04:21:51;32.70;;;20.00;;
1414;SDS011;702;49.466;11.086;2024-03-08T04:24:18;31.33;;;20.80;;
1414;SDS011;702;49.466;11.086;2024-03-08T04:26:50;33.60;;;21.70;;
1414;SDS011;702;49.466;11.086;2024-03-08T04:29:18;34.13;;;21.57;;
1414;SDS011;702;49.466;11.086;2024-03-08T04:31:47;34.03;;;21.43;;
1414;SDS011;702;49.466;11.086;2024-03-08T04:34:16;36.63;;;20.87;;
1414;SDS011;702;49.466;11.086;2024-03-08T04:36:45;34.23;;;22.23;;
1414;SDS011;702;49.466;11.086;2024-03-08T04:39:15;37.30;;;22.80;;
1414;SDS011;702;49.466;11.086;2024-03-08T04:41:44;33.97;;;22.07;;
1414;SDS011;702;49.466;11.086;2024-03-08T04:44:11;38.67;;;21.90;;
1414;SDS011;702;49.466;11.086;2024-03-08T04:46:39;34.90;;;21.90;;
1414;SDS011;702;49.466;11.086;2024-03-08T04:49:06;34.57;;;22.67;;
1414;SDS011;702;49.466;11.086;2024-03-08T04:51:33;35.97;;;22.67;;
1414;SDS011;702;49.466;11.086;2024-03-08T04:54:01;40.73;;;24.67;;
1414;SDS011;702;49.466;11.086;2024-03-08T04:56:31;38.07;;;23.97;;
1414;SDS011;702;49.466;11.086;2024-03-08T04:58:58;42.00;;;23.13;;
1414;SDS011;702;49.466;11.086;2024-03-08T05:01:26;40.53;;;23.53;;
1414;SDS011;702;49.466;11.086;2024-03-08T05:03:54;36.10;;;21.70;;
1414;SDS011;702;49.466;11.086;2024-03-08T05:06:21;45.13;;;23.27;;
1414;SDS011;702;49.466;11.086;2024-03-08T05:08:49;34.70;;;22.80;;
1414;SDS011;702;49.466;11.086;2024-03-08T05:11:16;39.30;;;26.17;;
1414;SDS011;702;49.466;11.086;2024-03-08T05:13:46;37.10;;;23.83;;
1414;SDS011;702;49.466;11.086;2024-03-08T05:16:13;35.80;;;23.47;;
1414;SDS011;702;49.466;11.086;2024-03-08T05:18:41;41.67;;;24.10;;
1414;SDS011;702;49.466;11.086;2024-03-08T05:21:09;39.70;;;24.53;;
1414;SDS011;702;49.466;11.086;2024-03-08T05:23:36;45.57;;;25.03;;
1414;SDS011;702;49.466;11.086;2024-03-08T05:26:04;39.80;;;22.90;;
1414;SDS011;702;49.466;11.086;2024-03-08T05:28:34;39.27;;;22.33;;
1414;SDS011;702;49.466;11.086;2024-03-08T05:31:04;44.40;;;25.30;;
1414;SDS011;702;49.466;11.086;2024-03-08T05:33:32;40.27;;;26.30;;
1414;SDS011;702;49.466;11.086;2024-03-08T05:35:59;39.60;;;23.37;;
1414;SDS011;702;49.466;11.086;2024-03-08T05:38:30;39.33;;;23.77;;
1414;SDS011;702;49.466;11.086;2024-03-08T05:40:57;38.77;;;22.57;;
1414;SDS011;702;49.466;11.086;2024-03-08T05:43:24;39.17;;;25.20;;
1414;SDS011;702;49.466;11.086;2024-03-08T05:45:55;40.50;;;26.47;;
1414;SDS011;702;49.466;11.086;2024-03-08T05:48:33;41.63;;;24.00;;
1414;SDS011;702;49.466;11.086;2024-03-08T05:51:01;40.87;;;25.23;;
1414;SDS011;702;49.466;11.086;2024-03-08T05:53:28;42.60;;;26.00;;
1414;SDS011;702;49.466;11.086;2024-03-08T05:55:57;44.63;;;26.60;;
1414;SDS011;702;49.466;11.086;2024-03-08T05:58:27;41.57;;;24.77;;
1414;SDS011;702;49.466;11.086;2024-03-08T06:00:57;44.53;;;25.27;;
1414;SDS011;702;49.466;11.086;2024-03-08T06:03:24;47.63;;;27.50;;
1414;SDS011;702;49.466;11.086;2024-03-08T06:05:53;47.20;;;25.30;;
1414;SDS011;702;49.466;11.086;2024-03-08T06:08:22;47.70;;;28.17;;
1414;SDS011;702;49.466;11.086;2024-03-08T06:10:54;43.60;;;25.67;;
1414;SDS011;702;49.466;11.086;2024-03-08T06:13:22;44.63;;;26.17;;
1414;SDS011;702;49.466;11.086;2024-03-08T06:15:49;42.80;;;25.97;;
1414;SDS011;702;49.466;11.086;2024-03-08T06:18:17;40.63;;;25.20;;
1414;SDS011;702;49.466;11.086;2024-03-08T06:20:44;45.67;;;26.10;;
1414;SDS011;702;49.466;11.086;2024-03-08T06:23:13;42.47;;;25.53;;
1414;SDS011;702;49.466;11.086;2024-03-08T06:25:42;41.20;;;23.57;;
1414;SDS011;702;49.466;11.086;2024-03-08T06:28:10;42.73;;;27.23;;
1414;SDS011;702;49.466;11.086;2024-03-08T06:30:39;39.37;;;25.77;;
1414;SDS011;702;49.466;11.086;2024-03-08T06:33:06;42.30;;;26.57;;
1414;SDS011;702;49.466;11.086;2024-03-08T06:35:33;42.50;;;27.43;;
1414;SDS011;702;49.466;11.086;2024-03-08T06:38:02;48.70;;;26.93;;
1414;SDS011;702;49.466;11.086;2024-03-08T06:40:32;43.27;;;26.20;;
1414;SDS011;702;49.466;11.086;2024-03-08T06:43:01;41.83;;;25.33;;
1414;SDS011;702;49.466;11.086;2024-03-08T06:45:32;45.43;;;26.93;;
1414;SDS011;702;49.466;11.086;2024-03-08T06:48:01;44.10;;;25.53;;
1414;SDS011;702;49.466;11.086;2024-03-08T06:50:29;39.27;;;25.33;;
1414;SDS011;702;49.466;11.086;2024-03-08T06:52:57;48.70;;;27.93;;
1414;SDS011;702;49.466;11.086;2024-03-08T06:55:25;42.00;;;25.80;;
1414;SDS011;702;49.466;11.086;2024-03-08T06:57:55;45.27;;;26.63;;
1414;SDS011;702;49.466;11.086;2024-03-08T07:00:23;41.30;;;26.80;;
1414;SDS011;702;49.466;11.086;2024-03-08T07:02:54;43.30;;;25.80;;
1414;SDS011;702;49.466;11.086;2024-03-08T07:05:22;36.87;;;24.60;;
1414;SDS011;702;49.466;11.086;2024-03-08T07:07:50;41.70;;;27.23;;
1414;SDS011;702;49.466;11.086;2024-03-08T07:10:18;40.80;;;26.47;;
1414;SDS011;702;49.466;11.086;2024-03-08T07:12:47;40.70;;;24.90;;
1414;SDS011;702;49.466;11.086;2024-03-08T07:15:17;44.07;;;27.10;;
1414;SDS011;702;49.466;11.086;2024-03-08T07:17:45;43.70;;;25.73;;
1414;SDS011;702;49.466;11.086;2024-03-08T07:20:12;40.70;;;25.60;;
1414;SDS011;702;49.466;11.086;2024-03-08T07:22:44;39.00;;;24.80;;
1414;SDS011;702;49.466;11.086;2024-03-08T07:25:13;40.60;;;24.60;;
1414;SDS011;702;49.466;11.086;2024-03-08T07:27:46;41.03;;;25.20;;
1414;SDS011;702;49.466;11.086;2024-03-08T07:30:18;41.77;;;25.43;;
1414;SDS011;702;49.466;11.086;2024-03-08T07:33:03;40.57;;;25.50;;
1414;SDS011;702;49.466;11.086;2024-03-08T07:35:33;41.50;;;25.87;;
1414;SDS011;702;49.466;11.086;2024-03-08T07:38:03;38.67;;;24.47;;
1414;SDS011;702;49.466;11.086;2024-03-08T07:40:31;39.37;;;24.30;;
1414;SDS011;702;49.466;11.086;2024-03-08T07:43:00;36.87;;;24.03;;
1414;SDS011;702;49.466;11.086;2024-03-08T07:45:30;43.37;;;25.20;;
1414;SDS011;702;49.466;11.086;2024-03-08T07:47:58;38.20;;;24.13;;
1414;SDS011;702;49.466;11.086;2024-03-08T07:50:25;37.17;;;23.80;;
1414;SDS011;702;49.466;11.086;2024-03-08T07:52:52;36.33;;;24.83;;
1414;SDS011;702;49.466;11.086;2024-03-08T07:55:20;38.57;;;24.00;;
1414;SDS011;702;49.466;11.086;2024-03-08T07:57:49;36.13;;;23.40;;
1414;SDS011;702;49.466;11.086;2024-03-08T08:00:17;36.87;;;22.97;;
1414;SDS011;702;49.466;11.086;2024-03-08T08:02:47;36.30;;;22.53;;
1414;SDS011;702;49.466;11.086;2024-03-08T08:05:14;37.67;;;23.13;;
1414;SDS011;702;49.466;11.086;2024-03-08T08:07:46;34.47;;;25.00;;
1414;SDS011;702;49.466;11.086;2024-03-08T08:10:15;38.03;;;23.07;;
1414;SDS011;702;49.466;11.086;2024-03-08T08:12:45;35.63;;;21.23;;
1414;SDS011;702;49.466;11.086;2024-03-08T08:15:12;35.60;;;22.80;;
1414;SDS011;702;49.466;11.086;2024-03-08T08:17:44;34.43;;;22.93;;
1414;SDS011;702;49.466;11.086;2024-03-08T08:20:15;41.00;;;30.13;;
1414;SDS011;702;49.466;11.086;2024-03-08T08:22:44;33.63;;;23.97;;
1414;SDS011;702;49.466;11.086;2024-03-08T08:25:13;36.10;;;24.10;;
1414;SDS011;702;49.466;11.086;2024-03-08T08:27:45;30.60;;;21.17;;
1414;SDS011;702;49.466;11.086;2024-03-08T08:30:13;33.77;;;23.70;;
1414;SDS011;702;49.466;11.086;2024-03-08T08:32:41;33.13;;;21.17;;
1414;SDS011;702;49.466;11.086;2024-03-08T08:35:09;34.50;;;23.40;;
1414;SDS011;702;49.466;11.086;2024-03-08T08:37:39;30.90;;;22.10;;
1414;SDS011;702;49.466;11.086;2024-03-08T08:40:09;35.00;;;21.57;;
1414;SDS011;702;49.466;11.086;2024-03-08T08:42:40;29.23;;;21.13;;
1414;SDS011;702;49.466;11.086;2024-03-08T08:45:09;34.63;;;21.40;;
1414;SDS011;702;49.466;11.086;2024-03-08T08:47:37;34.60;;;21.53;;
1414;SDS011;702;49.466;11.086;2024-03-08T08:50:09;30.10;;;20.83;;
1414;SDS011;702;49.466;11.086;2024-03-08T08:52:42;28.40;;;20.50;;
1414;SDS011;702;49.466;11.086;2024-03-08T08:55:10;32.83;;;20.70;;
1414;SDS011;702;49.466;11.086;2024-03-08T08:57:39;31.23;;;18.67;;
1414;SDS011;702;49.466;11.086;2024-03-08T09:00:09;27.70;;;18.73;;
1414;SDS011;702;49.466;11.086;2024-03-08T09:02:40;27.17;;;15.80;;
1414;SDS011;702;49.466;11.086;2024-03-08T09:05:09;27.13;;;16.90;;
1414;SDS011;702;49.466;11.086;2024-03-08T09:07:36;25.57;;;15.67;;
1414;SDS011;702;49.466;11.086;2024-03-08T09:10:06;24.47;;;16.63;;
1414;SDS011;702;49.466;11.086;2024-03-08T09:12:38;27.10;;;16.00;;
1414;SDS011;702;49.466;11.086;2024-03-08T09:15:08;24.60;;;16.67;;
1414;SDS011;702;49.466;11.086;2024-03-08T09:17:36;21.70;;;16.73;;
1414;SDS011;702;49.466;11.086;2024-03-08T09:20:06;24.17;;;16.87;;
1414;SDS011;702;49.466;11.086;2024-03-08T09:22:40;22.63;;;14.10;;
1414;SDS011;702;49.466;11.086;2024-03-08T09:25:09;21.93;;;16.07;;
1414;SDS011;702;49.466;11.086;2024-03-08T09:27:38;22.60;;;15.93;;
1414;SDS011;702;49.466;11.086;2024-03-08T09:30:06;23.20;;;16.13;;
1414;SDS011;702;49.466;11.086;2024-03-08T09:32:35;21.33;;;16.10;;
1414;SDS011;702;49.466;11.086;2024-03-08T09:35:03;22.20;;;16.70;;
1414;SDS011;702;49.466;11.086;2024-03-08T09:37:32;21.83;;;14.20;;
1414;SDS011;702;49.466;11.086;2024-03-08T09:40:04;22.13;;;15.80;;
1414;SDS011;702;49.466;11.086;2024-03-08T09:42:41;18.20;;;13.90;;
1414;SDS011;702;49.466;11.086;2024-03-08T09:45:11;20.00;;;13.87;;
1414;SDS011;702;49.466;11.086;2024-03-08T09:47:40;25.03;;;17.00;;
1414;SDS011;702;49.466;11.086;2024-03-08T09:50:09;19.43;;;14.43;;
1414;SDS011;702;49.466;11.086;2024-03-08T09:52:38;25.50;;;14.87;;
1414;SDS011;702;49.466;11.086;2024-03-08T09:55:10;20.90;;;13.50;;
1414;SDS011;702;49.466;11.086;2024-03-08T09:57:38;17.53;;;13.47;;
1414;SDS011;702;49.466;11.086;2024-03-08T10:00:29;19.70;;;12.90;;
1414;SDS011;702;49.466;11.086;2024-03-08T10:03:00;18.67;;;12.80;;
1414;SDS011;702;49.466;11.086;2024-03-08T10:05:28;17.70;;;12.20;;
1414;SDS011;702;49.466;11.086;2024-03-08T10:08:01;16.97;;;12.80;;
1414;SDS011;702;49.466;11.086;2024-03-08T10:10:33;19.17;;;12.40;;
1414;SDS011;702;49.466;11.086;2024-03-08T10:13:02;19.27;;;14.30;;
1414;SDS011;702;49.466;11.086;2024-03-08T10:15:32;18.70;;;13.33;;
1414;SDS011;702;49.466;11.086;2024-03-08T10:18:00;17.30;;;12.07;;
1414;SDS011;702;49.466;11.086;2024-03-08T10:20:28;17.87;;;11.77;;
1414;SDS011;702;49.466;11.086;2024-03-08T10:23:00;18.33;;;13.00;;
1414;SDS011;702;49.466;11.086;2024-03-08T10:25:30;17.50;;;12.00;;
1414;SDS011;702;49.466;11.086;2024-03-08T10:28:00;17.87;;;12.10;;
1414;SDS011;702;49.466;11.086;2024-03-08T10:30:32;16.63;;;12.63;;
1414;SDS011;702;49.466;11.086;2024-03-08T10:32:59;19.00;;;12.63;;
1414;SDS011;702;49.466;11.086;2024-03-08T10:35:30;15.80;;;11.13;;
1414;SDS011;702;49.466;11.086;2024-03-08T10:37:57;15.73;;;11.30;;
1414;SDS011;702;49.466;11.086;2024-03-08T10:40:31;14.30;;;10.37;;
1414;SDS011;702;49.466;11.086;2024-03-08T10:42:59;15.20;;;10.70;;
1414;SDS011;702;49.466;11.086;2024-03-08T10:45:34;15.40;;;9.97;;
1414;SDS011;702;49.466;11.086;2024-03-08T10:48:14;12.67;;;10.00;;
1414;SDS011;702;49.466;11.086;2024-03-08T10:50:57;14.07;;;11.33;;
1414;SDS011;702;49.466;11.086;2024-03-08T10:53:28;14.53;;;11.00;;
1414;SDS011;702;49.466;11.086;2024-03-08T10:55:56;14.40;;;10.97;;
1414;SDS011;702;49.466;11.086;2024-03-08T10:58:25;15.97;;;10.93;;
1414;SDS011;702;49.466;11.086;2024-03-08T11:00:55;12.77;;;9.83;;
1414;SDS011;702;49.466;11.086;2024-03-08T11:06:13;14.27;;;10.13;;
1414;SDS011;702;49.466;11.086;2024-03-08T11:08:49;13.23;;;10.53;;
1414;SDS011;702;49.466;11.086;2024-03-08T11:11:24;13.63;;;9.53;;
1414;SDS011;702;49.466;11.086;2024-03-08T11:13:59;10.80;;;8.40;;
1414;SDS011;702;49.466;11.086;2024-03-08T11:16:38;13.30;;;8.90;;
1414;SDS011;702;49.466;11.086;2024-03-08T11:19:24;10.87;;;8.87;;
1414;SDS011;702;49.466;11.086;2024-03-08T11:22:13;14.80;;;9.80;;
1414;SDS011;702;49.466;11.086;2024-03-08T11:24:49;11.57;;;9.37;;
1414;SDS011;702;49.466;11.086;2024-03-08T11:27:17;14.33;;;8.90;;
1414;SDS011;702;49.466;11.086;2024-03-08T11:29:58;10.10;;;8.87;;
1414;SDS011;702;49.466;11.086;2024-03-08T11:32:35;10.97;;;8.50;;
1414;SDS011;702;49.466;11.086;2024-03-08T11:35:05;15.00;;;10.30;;
1414;SDS011;702;49.466;11.086;2024-03-08T11:37:35;13.70;;;8.97;;
1414;SDS011;702;49.466;11.086;2024-03-08T11:40:11;12.00;;;8.43;;
1414;SDS011;702;49.466;11.086;2024-03-08T11:42:43;11.97;;;9.03;;
1414;SDS011;702;49.466;11.086;2024-03-08T11:45:13;11.70;;;9.83;;
1414;SDS011;702;49.466;11.086;2024-03-08T11:47:44;12.00;;;8.97;;
1414;SDS011;702;49.466;11.086;2024-03-08T11:50:12;11.03;;;9.27;;
1414;SDS011;702;49.466;11.086;2024-03-08T11:52:43;12.07;;;8.10;;
1414;SDS011;702;49.466;11.086;2024-03-08T11:55:11;15.10;;;9.90;;
1414;SDS011;702;49.466;11.086;2024-03-08T11:57:39;9.23;;;8.20;;
1414;SDS011;702;49.466;11.086;2024-03-08T12:00:14;12.87;;;8.20;;
1414;SDS011;702;49.466;11.086;2024-03-08T12:03:02;10.47;;;8.87;;
1414;SDS011;702;49.466;11.086;2024-03-08T12:05:31;11.83;;;9.47;;
1414;SDS011;702;49.466;11.086;2024-03-08T12:08:01;11.70;;;8.30;;
1414;SDS011;702;49.466;11.086;2024-03-08T12:10:38;14.47;;;9.53;;
1414;SDS011;702;49.466;11.086;2024-03-08T12:13:06;11.93;;;9.13;;
1414;SDS011;702;49.466;11.086;2024-03-08T12:15:39;9.93;;;8.57;;
1414;SDS011;702;49.466;11.086;2024-03-08T12:18:10;11.17;;;8.50;;
1414;SDS011;702;49.466;11.086;2024-03-08T12:20:38;10.87;;;8.70;;
1414;SDS011;702;49.466;11.086;2024-03-08T12:23:14;12.10;;;9.20;;
1414;SDS011;702;49.466;11.086;2024-03-08T12:25:42;10.90;;;8.17;;
1414;SDS011;702;49.466;11.086;2024-03-08T12:28:11;14.60;;;7.80;;
1414;SDS011;702;49.466;11.086;2024-03-08T12:30:47;13.77;;;8.23;;
1414;SDS011;702;49.466;11.086;2024-03-08T12:33:21;11.83;;;8.40;;
1414;SDS011;702;49.466;11.086;2024-03-08T12:35:52;12.03;;;8.77;;
1414;SDS011;702;49.466;11.086;2024-03-08T12:38:23;10.80;;;8.10;;
1414;SDS011;702;49.466;11.086;2024-03-08T12:40:58;12.43;;;8.80;;
1414;SDS011;702;49.466;11.086;2024-03-08T12:43:27;12.53;;;9.43;;
1414;SDS011;702;49.466;11.086;2024-03-08T12:45:56;9.40;;;7.87;;
1414;SDS011;702;49.466;11.086;2024-03-08T12:48:26;10.53;;;8.63;;
1414;SDS011;702;49.466;11.086;2024-03-08T12:50:53;10.93;;;8.50;;
1414;SDS011;702;49.466;11.086;2024-03-08T12:53:22;10.67;;;8.80;;
1414;SDS011;702;49.466;11.086;2024-03-08T12:55:50;10.90;;;8.87;;
1414;SDS011;702;49.466;11.086;2024-03-08T12:58:19;10.97;;;8.73;;
1414;SDS011;702;49.466;11.086;2024-03-08T13:00:49;10.90;;;9.00;;
1414;SDS011;702;49.466;11.086;2024-03-08T13:03:16;10.50;;;9.20;;
1414;SDS011;702;49.466;11.086;2024-03-08T13:05:45;11.20;;;9.20;;
1414;SDS011;702;49.466;11.086;2024-03-08T13:08:13;10.93;;;9.33;;
1414;SDS011;702;49.466;11.086;2024-03-08T13:10:41;10.07;;;7.73;;
1414;SDS011;702;49.466;11.086;2024-03-08T13:13:10;15.00;;;8.90;;
1414;SDS011;702;49.466;11.086;2024-03-08T13:15:42;14.43;;;9.97;;
1414;SDS011;702;49.466;11.086;2024-03-08T13:18:10;13.70;;;10.50;;
1414;SDS011;702;49.466;11.086;2024-03-08T13:20:41;16.90;;;11.80;;
1414;SDS011;702;49.466;11.086;2024-03-08T13:23:15;14.23;;;10.50;;
1414;SDS011;702;49.466;11.086;2024-03-08T13:25:44;14.60;;;9.53;;
1414;SDS011;702;49.466;11.086;2024-03-08T13:28:16;12.63;;;9.77;;
1414;SDS011;702;49.466;11.086;2024-03-08T13:30:49;13.37;;;11.23;;
1414;SDS011;702;49.466;11.086;2024-03-08T13:33:20;12.87;;;10.57;;
1414;SDS011;702;49.466;11.086;2024-03-08T13:35:48;14.43;;;11.67;;
1414;SDS011;702;49.466;11.086;2024-03-08T13:38:17;13.57;;;10.73;;
1414;SDS011;702;49.466;11.086;2024-03-08T13:40:48;12.97;;;10.80;;
1414;SDS011;702;49.466;11.086;2024-03-08T13:43:16;12.90;;;10.80;;
1414;SDS011;702;49.466;11.086;2024-03-08T13:45:48;13.53;;;10.60;;
1414;SDS011;702;49.466;11.086;2024-03-08T13:48:18;16.33;;;12.50;;
1414;SDS011;702;49.466;11.086;2024-03-08T13:50:45;14.40;;;12.60;;
1414;SDS011;702;49.466;11.086;2024-03-08T13:53:18;13.73;;;11.00;;
1414;SDS011;702;49.466;11.086;2024-03-08T13:55:49;12.77;;;10.33;;
1414;SDS011;702;49.466;11.086;2024-03-08T13:58:22;16.20;;;10.97;;
1414;SDS011;702;49.466;11.086;2024-03-08T14:00:50;14.87;;;11.60;;
1414;SDS011;702;49.466;11.086;2024-03-08T14:03:19;12.37;;;11.03;;
1414;SDS011;702;49.466;11.086;2024-03-08T14:05:50;12.93;;;10.53;;
1414;SDS011;702;49.466;11.086;2024-03-08T14:08:19;14.77;;;11.43;;
1414;SDS011;702;49.466;11.086;2024-03-08T14:10:53;13.90;;;10.70;;
1414;SDS011;702;49.466;11.086;2024-03-08T14:13:21;12.33;;;10.23;;
1414;SDS011;702;49.466;11.086;2024-03-08T14:15:51;12.93;;;10.30;;
1414;SDS011;702;49.466;11.086;2024-03-08T14:18:21;11.40;;;10.13;;
1414;SDS011;702;49.466;11.086;2024-03-08T14:20:50;15.27;;;11.40;;
1414;SDS011;702;49.466;11.086;2024-03-08T14:23:20;12.27;;;10.43;;
1414;SDS011;702;49.466;11.086;2024-03-08T14:25:48;16.30;;;9.80;;
1414;SDS011;702;49.466;11.086;2024-03-08T14:28:18;13.60;;;10.67;;
1414;SDS011;702;49.466;11.086;2024-03-08T14:30:48;11.20;;;9.57;;
1414;SDS011;702;49.466;11.086;2024-03-08T14:33:15;12.97;;;10.20;;
1414;SDS011;702;49.466;11.086;2024-03-08T14:35:43;13.50;;;10.67;;
1414;SDS011;702;49.466;11.086;2024-03-08T14:38:12;13.63;;;11.50;;
1414;SDS011;702;49.466;11.086;2024-03-08T14:40:44;13.10;;;10.83;;
1414;SDS011;702;49.466;11.086;2024-03-08T14:43:14;12.53;;;11.20;;
1414;SDS011;702;49.466;11.086;2024-03-08T14:45:46;13.82;;;11.73;;
1414;SDS011;702;49.466;11.086;2024-03-08T14:48:17;13.67;;;10.73;;
1414;SDS011;702;49.466;11.086;2024-03-08T14:50:46;14.67;;;11.30;;
1414;SDS011;702;49.466;11.086;2024-03-08T14:53:13;11.87;;;10.13;;
1414;SDS011;702;49.466;11.086;2024-03-08T14:55:42;14.07;;;10.00;;
1414;SDS011;702;49.466;11.086;2024-03-08T14:58:12;14.37;;;10.27;;
1414;SDS011;702;49.466;11.086;2024-03-08T15:00:39;15.90;;;11.20;;
1414;SDS011;702;49.466;11.086;2024-03-08T15:03:07;12.83;;;11.37;;
1414;SDS011;702;49.466;11.086;2024-03-08T15:05:38;13.40;;;10.10;;
1414;SDS011;702;49.466;11.086;2024-03-08T15:08:07;14.60;;;11.30;;